createdAt,value
2016-10-05T00:00:16.672Z,0
2016-10-05T00:01:16.628Z,0
2016-10-05T00:02:16.286Z,0
2016-10-05T00:03:16.556Z,0
2016-10-05T00:04:16.216Z,0
2016-10-05T00:05:15.871Z,0
2016-10-05T00:06:16.435Z,0
2016-10-05T00:07:15.494Z,0
2016-10-05T00:08:16.065Z,0
2016-10-05T00:09:16.330Z,0
2016-10-05T00:10:15.683Z,0
2016-10-05T00:11:15.955Z,0
2016-10-05T00:12:16.219Z,0
2016-10-05T00:13:15.872Z,0
2016-10-05T00:14:15.540Z,0
2016-10-05T00:15:15.497Z,0
2016-10-05T00:16:15.761Z,0
2016-10-05T00:17:16.023Z,0
2016-10-05T00:18:15.992Z,0
2016-10-05T00:19:15.957Z,0
2016-10-05T00:20:15.918Z,0
2016-10-05T00:21:15.273Z,0
2016-10-05T00:22:15.529Z,0
2016-10-05T00:23:15.799Z,0
2016-10-05T00:24:15.774Z,0
2016-10-05T00:25:15.123Z,0
2016-10-05T00:26:15.086Z,0
2016-10-05T00:27:15.642Z,0
2016-10-05T00:28:15.611Z,0
2016-10-05T00:29:15.275Z,0
2016-10-05T00:30:15.544Z,0
2016-10-05T00:31:14.592Z,0
2016-10-05T00:32:15.473Z,0
2016-10-05T00:33:15.130Z,0
2016-10-05T00:34:14.785Z,0
2016-10-05T00:35:15.344Z,0
2016-10-05T00:36:15.012Z,0
2016-10-05T00:37:14.677Z,0
2016-10-05T00:38:14.936Z,0
2016-10-05T00:39:14.901Z,0
2016-10-05T00:40:14.556Z,0
2016-10-05T00:41:15.150Z,0
2016-10-05T00:42:14.481Z,0
2016-10-05T00:43:15.049Z,0
2016-10-05T00:44:15.016Z,0
2016-10-05T00:45:14.369Z,0
2016-10-05T00:46:14.636Z,0
2016-10-05T00:47:14.601Z,0
2016-10-05T00:48:14.867Z,0
2016-10-05T00:49:14.213Z,0
2016-10-05T00:50:14.783Z,0
2016-10-05T00:51:14.750Z,0
2016-10-05T00:52:14.406Z,0
2016-10-05T00:53:14.373Z,0
2016-10-05T00:54:14.642Z,0
2016-10-05T00:55:14.596Z,0
2016-10-05T00:56:14.264Z,0
2016-10-05T00:57:14.222Z,0
2016-10-05T00:58:14.185Z,0
2016-10-05T00:59:14.149Z,0
2016-10-05T01:00:14.402Z,0
2016-10-05T01:01:14.372Z,0
2016-10-05T01:02:14.340Z,0
2016-10-05T01:03:14.298Z,0
2016-10-05T01:04:14.256Z,0
2016-10-05T01:05:13.925Z,0
2016-10-05T01:06:13.578Z,0
2016-10-05T01:07:14.146Z,0
2016-10-05T01:08:13.509Z,0
2016-10-05T01:09:13.784Z,0
2016-10-05T01:10:13.731Z,0
2016-10-05T01:11:13.698Z,0
2016-10-05T01:12:13.961Z,0
2016-10-05T01:13:13.919Z,0
2016-10-05T01:14:13.887Z,0
2016-10-05T01:15:13.545Z,0
2016-10-05T01:16:13.819Z,0
2016-10-05T01:17:13.474Z,0
2016-10-05T01:18:13.726Z,0
2016-10-05T01:19:13.691Z,0
2016-10-05T01:20:13.057Z,0
2016-10-05T01:21:13.619Z,0
2016-10-05T01:22:13.281Z,0
2016-10-05T01:23:13.538Z,0
2016-10-05T01:24:12.901Z,0
2016-10-05T01:25:13.166Z,0
2016-10-05T01:26:13.129Z,0
2016-10-05T01:27:12.788Z,0
2016-10-05T01:28:13.064Z,0
2016-10-05T01:29:12.714Z,0
2016-10-05T01:30:13.282Z,0
2016-10-05T01:31:13.244Z,0
2016-10-05T01:32:12.903Z,0
2016-10-05T01:33:12.863Z,0
2016-10-05T01:34:13.132Z,0
2016-10-05T01:35:13.097Z,0
2016-10-05T01:36:13.052Z,0
2016-10-05T01:37:12.717Z,0
2016-10-05T01:38:12.677Z,0
2016-10-05T01:39:12.945Z,0
2016-10-05T01:40:12.898Z,0
2016-10-05T01:41:12.566Z,0
2016-10-05T01:42:12.826Z,0
2016-10-05T01:43:12.488Z,0
2016-10-05T01:44:11.843Z,0
2016-10-05T01:45:12.105Z,0
2016-10-05T01:46:12.378Z,0
2016-10-05T01:47:12.332Z,0
2016-10-05T01:48:12.602Z,0
2016-10-05T01:49:12.252Z,0
2016-10-05T01:50:12.532Z,0
2016-10-05T01:51:11.880Z,0
2016-10-05T01:52:12.446Z,0
2016-10-05T01:53:12.420Z,0
2016-10-05T01:54:12.374Z,0
2016-10-05T01:55:12.340Z,0
2016-10-05T01:56:11.994Z,0
2016-10-05T01:57:12.255Z,0
2016-10-05T01:58:11.920Z,0
2016-10-05T01:59:12.185Z,0
2016-10-05T02:00:11.838Z,0
2016-10-05T02:01:11.805Z,0
2016-10-05T02:02:11.162Z,0
2016-10-05T02:03:12.034Z,0
2016-10-05T02:04:11.994Z,0
2016-10-05T02:05:11.351Z,0
2016-10-05T02:06:11.614Z,0
2016-10-05T02:07:11.885Z,0
2016-10-05T02:08:11.539Z,0
2016-10-05T02:09:11.503Z,0
2016-10-05T02:10:11.765Z,0
2016-10-05T02:11:11.731Z,0
2016-10-05T02:12:11.389Z,0
2016-10-05T02:13:11.049Z,0
2016-10-05T02:14:11.322Z,0
2016-10-05T02:15:11.279Z,0
2016-10-05T02:16:11.543Z,0
2016-10-05T02:17:10.917Z,0
2016-10-05T02:18:11.466Z,0
2016-10-05T02:19:11.139Z,0
2016-10-05T02:20:11.393Z,0
2016-10-05T02:21:11.361Z,0
2016-10-05T02:22:10.724Z,0
2016-10-05T02:23:11.273Z,0
2016-10-05T02:24:10.639Z,0
2016-10-05T02:25:11.190Z,0
2016-10-05T02:26:10.855Z,0
2016-10-05T02:27:10.823Z,0
2016-10-05T02:28:10.791Z,0
2016-10-05T02:29:11.051Z,0
2016-10-05T02:30:11.507Z,0
2016-10-05T02:31:11.134Z,0
2016-10-05T02:32:10.330Z,0
2016-10-05T02:33:10.301Z,0
2016-10-05T02:34:10.880Z,0
2016-10-05T02:35:09.913Z,0
2016-10-05T02:36:10.183Z,0
2016-10-05T02:37:10.449Z,0
2016-10-05T02:38:10.397Z,0
2016-10-05T02:39:10.666Z,0
2016-10-05T02:40:10.346Z,0
2016-10-05T02:41:10.288Z,0
2016-10-05T02:42:10.251Z,0
2016-10-05T02:43:10.508Z,0
2016-10-05T02:44:10.481Z,0
2016-10-05T02:45:10.452Z,0
2016-10-05T02:46:10.399Z,0
2016-10-05T02:47:10.067Z,0
2016-10-05T02:48:10.321Z,0
2016-10-05T02:49:09.982Z,0
2016-10-05T02:50:10.244Z,0
2016-10-05T02:51:10.110Z,0
2016-10-05T02:52:09.568Z,0
2016-10-05T02:53:09.829Z,0
2016-10-05T02:54:09.792Z,0
2016-10-05T02:55:09.754Z,0
2016-10-05T02:56:10.026Z,0
2016-10-05T02:57:09.685Z,0
2016-10-05T02:58:10.033Z,0
2016-10-05T02:59:09.605Z,0
2016-10-05T03:00:09.569Z,0
2016-10-05T03:01:09.543Z,0
2016-10-05T03:02:09.482Z,0
2016-10-05T03:03:09.756Z,0
2016-10-05T03:04:09.716Z,0
2016-10-05T03:05:09.377Z,0
2016-10-05T03:06:09.035Z,0
2016-10-05T03:07:09.307Z,0
2016-10-05T03:08:09.560Z,0
2016-10-05T03:09:09.226Z,0
2016-10-05T03:10:09.182Z,0
2016-10-05T03:11:09.450Z,0
2016-10-05T03:12:09.103Z,0
2016-10-05T03:13:09.371Z,0
2016-10-05T03:14:08.728Z,0
2016-10-05T03:15:09.297Z,0
2016-10-05T03:16:09.264Z,0
2016-10-05T03:17:09.228Z,0
2016-10-05T03:18:08.625Z,0
2016-10-05T03:19:08.532Z,0
2016-10-05T03:20:09.112Z,0
2016-10-05T03:21:08.169Z,0
2016-10-05T03:22:09.028Z,0
2016-10-05T03:23:08.697Z,0
2016-10-05T03:24:08.948Z,0
2016-10-05T03:25:08.923Z,0
2016-10-05T03:26:08.574Z,0
2016-10-05T03:27:08.831Z,0
2016-10-05T03:28:08.819Z,0
2016-10-05T03:29:08.457Z,0
2016-10-05T03:30:08.117Z,0
2016-10-05T03:31:08.385Z,0
2016-10-05T03:32:08.636Z,0
2016-10-05T03:33:08.308Z,0
2016-10-05T03:34:08.571Z,0
2016-10-05T03:35:08.544Z,0
2016-10-05T03:36:08.195Z,0
2016-10-05T03:37:08.448Z,0
2016-10-05T03:38:08.419Z,0
2016-10-05T03:39:08.389Z,0
2016-10-05T03:40:07.737Z,0
2016-10-05T03:41:08.003Z,0
2016-10-05T03:42:07.952Z,0
2016-10-05T03:43:08.222Z,0
2016-10-05T03:44:08.181Z,0
2016-10-05T03:45:07.241Z,0
2016-10-05T03:46:07.802Z,0
2016-10-05T03:47:08.080Z,0
2016-10-05T03:48:07.426Z,0
2016-10-05T03:49:07.996Z,0
2016-10-05T03:50:07.652Z,0
2016-10-05T03:51:07.920Z,0
2016-10-05T03:52:07.271Z,0
2016-10-05T03:53:07.833Z,0
2016-10-05T03:54:07.209Z,0
2016-10-05T03:55:07.457Z,0
2016-10-05T03:56:07.723Z,0
2016-10-05T03:57:07.385Z,0
2016-10-05T03:58:07.648Z,0
2016-10-05T03:59:07.005Z,0
2016-10-05T04:00:07.575Z,0
2016-10-05T04:01:07.534Z,0
2016-10-05T04:02:06.888Z,0
2016-10-05T04:03:07.458Z,0
2016-10-05T04:04:07.116Z,0
2016-10-05T04:05:07.080Z,0
2016-10-05T04:06:07.047Z,0
2016-10-05T04:07:07.297Z,0
2016-10-05T04:08:07.272Z,0
2016-10-05T04:09:07.223Z,0
2016-10-05T04:10:06.588Z,0
2016-10-05T04:11:06.542Z,0
2016-10-05T04:12:06.797Z,0
2016-10-05T04:13:06.769Z,0
2016-10-05T04:14:07.036Z,0
2016-10-05T04:15:06.390Z,0
2016-10-05T04:16:06.656Z,0
2016-10-05T04:17:06.305Z,0
2016-10-05T04:18:06.273Z,0
2016-10-05T04:19:06.240Z,0
2016-10-05T04:20:06.498Z,0
2016-10-05T04:21:06.764Z,0
2016-10-05T04:22:06.734Z,0
2016-10-05T04:23:06.682Z,0
2016-10-05T04:24:06.343Z,0
2016-10-05T04:25:06.612Z,0
2016-10-05T04:26:05.667Z,0
2016-10-05T04:27:05.923Z,0
2016-10-05T04:28:06.492Z,0
2016-10-05T04:29:06.170Z,0
2016-10-05T04:30:06.417Z,0
2016-10-05T04:31:05.790Z,0
2016-10-05T04:32:06.031Z,0
2016-10-05T04:33:05.995Z,0
2016-10-05T04:34:05.962Z,0
2016-10-05T04:35:05.617Z,0
2016-10-05T04:36:06.189Z,0
2016-10-05T04:37:06.150Z,0
2016-10-05T04:38:06.103Z,0
2016-10-05T04:39:06.070Z,0
2016-10-05T04:40:05.426Z,0
2016-10-05T04:41:06.003Z,0
2016-10-05T04:42:05.951Z,0
2016-10-05T04:43:05.315Z,0
2016-10-05T04:44:05.881Z,0
2016-10-05T04:45:05.535Z,0
2016-10-05T04:46:04.888Z,0
2016-10-05T04:47:05.762Z,0
2016-10-05T04:48:05.417Z,0
2016-10-05T04:49:05.705Z,0
2016-10-05T04:50:05.650Z,0
2016-10-05T04:51:05.618Z,0
2016-10-05T04:52:04.964Z,0
2016-10-05T04:53:05.525Z,0
2016-10-05T04:54:04.885Z,0
2016-10-05T04:55:05.451Z,0
2016-10-05T04:56:05.410Z,0
2016-10-05T04:57:05.080Z,0
2016-10-05T04:58:05.336Z,0
2016-10-05T04:59:05.011Z,0
2016-10-05T05:00:05.262Z,0
2016-10-05T05:01:04.913Z,0
2016-10-05T05:02:05.173Z,0
2016-10-05T05:03:04.555Z,0
2016-10-05T05:04:05.105Z,0
2016-10-05T05:05:04.459Z,0
2016-10-05T05:06:05.029Z,0
2016-10-05T05:07:04.683Z,0
2016-10-05T05:08:04.951Z,0
2016-10-05T05:09:04.601Z,0
2016-10-05T05:10:04.568Z,0
2016-10-05T05:11:04.535Z,0
2016-10-05T05:12:04.490Z,0
2016-10-05T05:13:04.145Z,0
2016-10-05T05:14:04.414Z,0
2016-10-05T05:15:04.699Z,0
2016-10-05T05:16:04.331Z,0
2016-10-05T05:17:04.596Z,0
2016-10-05T05:18:04.562Z,0
2016-10-05T05:19:04.220Z,5
2016-10-05T05:20:04.481Z,5
2016-10-05T05:21:04.443Z,5
2016-10-05T05:22:04.407Z,5
2016-10-05T05:23:03.761Z,5
2016-10-05T05:24:04.020Z,5
2016-10-05T05:25:03.988Z,5
2016-10-05T05:26:03.946Z,10
2016-10-05T05:27:04.227Z,10
2016-10-05T05:28:03.870Z,10
2016-10-05T05:29:04.132Z,10
2016-10-05T05:30:03.802Z,10
2016-10-05T05:31:03.754Z,15
2016-10-05T05:32:04.031Z,15
2016-10-05T05:33:03.670Z,15
2016-10-05T05:34:03.942Z,20
2016-10-05T05:35:03.595Z,20
2016-10-05T05:36:03.866Z,20
2016-10-05T05:37:02.925Z,25
2016-10-05T05:38:03.194Z,30
2016-10-05T05:39:03.766Z,40
2016-10-05T05:40:03.700Z,50
2016-10-05T05:41:02.762Z,65
2016-10-05T05:42:03.022Z,75
2016-10-05T05:43:03.293Z,80
2016-10-05T05:44:03.551Z,90
2016-10-05T05:45:03.509Z,100
2016-10-05T05:46:03.178Z,105
2016-10-05T05:47:03.149Z,110
2016-10-05T05:48:03.096Z,120
2016-10-05T05:49:03.059Z,130
2016-10-05T05:50:02.712Z,140
2016-10-05T05:51:03.282Z,155
2016-10-05T05:52:02.637Z,155
2016-10-05T05:53:02.906Z,170
2016-10-05T05:54:03.171Z,165
2016-10-05T05:55:02.831Z,175
2016-10-05T05:56:02.808Z,190
2016-10-05T05:57:03.049Z,185
2016-10-05T05:58:03.018Z,190
2016-10-05T05:59:02.379Z,200
2016-10-05T06:00:02.330Z,215
2016-10-05T06:01:02.917Z,230
2016-10-05T06:02:02.570Z,235
2016-10-05T06:03:02.548Z,250
2016-10-05T06:04:02.501Z,255
2016-10-05T06:05:02.452Z,270
2016-10-05T06:06:02.722Z,275
2016-10-05T06:07:02.389Z,270
2016-10-05T06:08:02.652Z,285
2016-10-05T06:09:02.609Z,295
2016-10-05T06:10:02.286Z,310
2016-10-05T06:11:02.239Z,280
2016-10-05T06:12:02.506Z,295
2016-10-05T06:13:02.460Z,340
2016-10-05T06:14:02.124Z,300
2016-10-05T06:15:02.096Z,310
2016-10-05T06:16:01.745Z,330
2016-10-05T06:17:02.326Z,335
2016-10-05T06:18:01.983Z,305
2016-10-05T06:19:01.348Z,350
2016-10-05T06:20:02.216Z,380
2016-10-05T06:21:01.876Z,400
2016-10-05T06:22:01.541Z,400
2016-10-05T06:23:02.119Z,430
2016-10-05T06:24:01.775Z,440
2016-10-05T06:25:01.745Z,455
2016-10-05T06:26:02.012Z,465
2016-10-05T06:27:01.978Z,475
2016-10-05T06:28:01.938Z,485
2016-10-05T06:29:01.902Z,500
2016-10-05T06:30:01.571Z,505
2016-10-05T06:31:00.932Z,510
2016-10-05T06:32:01.797Z,530
2016-10-05T06:33:01.172Z,540
2016-10-05T06:34:01.136Z,560
2016-10-05T06:35:01.702Z,590
2016-10-05T06:36:01.699Z,600
2016-10-05T06:37:01.632Z,625
2016-10-05T06:38:01.301Z,635
2016-10-05T06:39:01.579Z,635
2016-10-05T06:40:01.546Z,680
2016-10-05T06:41:01.207Z,690
2016-10-05T06:42:01.482Z,690
2016-10-05T06:43:01.142Z,720
2016-10-05T06:44:00.816Z,740
2016-10-05T06:45:01.088Z,755
2016-10-05T06:46:01.360Z,775
2016-10-05T06:47:01.317Z,790
2016-10-05T06:48:01.284Z,815
2016-10-05T06:49:00.955Z,820
2016-10-05T06:50:01.222Z,835
2016-10-05T06:51:00.891Z,840
2016-10-05T06:52:00.556Z,855
2016-10-05T06:53:01.128Z,865
2016-10-05T06:54:01.119Z,875
2016-10-05T06:55:00.463Z,890
2016-10-05T06:56:00.740Z,900
2016-10-05T06:57:01.005Z,915
2016-10-05T06:58:00.368Z,930
2016-10-05T06:59:00.349Z,930
2016-10-05T07:03:45.588Z,965
2016-10-05T07:03:55.108Z,965
2016-10-05T07:04:55.689Z,975
2016-10-05T07:05:55.341Z,990
2016-10-05T07:06:55.352Z,1000
2016-10-05T07:07:55.587Z,1010
2016-10-05T07:08:54.962Z,1015
2016-10-05T07:09:55.529Z,1025
2016-10-05T07:10:55.196Z,1040
2016-10-05T07:11:55.179Z,1050
2016-10-05T07:12:55.446Z,1065
2016-10-05T07:13:54.821Z,1070
2016-10-05T07:14:55.089Z,1070
2016-10-05T07:15:55.055Z,1075
2016-10-05T07:16:55.031Z,1090
2016-10-05T07:17:55.000Z,1090
2016-10-05T07:18:55.280Z,1110
2016-10-05T07:19:55.250Z,1115
2016-10-05T07:20:55.216Z,1120
2016-10-05T07:21:54.912Z,1130
2016-10-05T07:22:54.871Z,1135
2016-10-05T07:23:54.530Z,1130
2016-10-05T07:24:54.803Z,1135
2016-10-05T07:25:55.081Z,1155
2016-10-05T07:26:54.749Z,1150
2016-10-05T07:27:54.717Z,1125
2016-10-05T07:28:54.991Z,1135
2016-10-05T07:29:54.967Z,1120
2016-10-05T07:30:54.336Z,1110
2016-10-05T07:31:54.314Z,1100
2016-10-05T07:32:54.279Z,1115
2016-10-05T07:33:54.863Z,1090
2016-10-05T07:34:53.924Z,1100
2016-10-05T07:35:54.801Z,1105
2016-10-05T07:36:54.785Z,1105
2016-10-05T07:37:54.441Z,1115
2016-10-05T07:38:54.115Z,1105
2016-10-05T07:39:54.393Z,1100
2016-10-05T07:40:54.671Z,1090
2016-10-05T07:41:54.336Z,1095
2016-10-05T07:42:53.706Z,1085
2016-10-05T07:43:53.982Z,1175
2016-10-05T07:44:53.953Z,1255
2016-10-05T07:45:54.536Z,1340
2016-10-05T07:46:54.203Z,1365
2016-10-05T07:47:54.177Z,1425
2016-10-05T07:48:54.148Z,1435
2016-10-05T07:49:54.133Z,1425
2016-10-05T07:50:54.397Z,900
2016-10-05T07:51:54.074Z,1460
2016-10-05T07:52:54.343Z,1000
2016-10-05T07:53:54.318Z,1350
2016-10-05T07:54:54.289Z,1120
2016-10-05T07:55:53.963Z,1265
2016-10-05T07:56:54.239Z,1445
2016-10-05T07:57:53.911Z,1500
2016-10-05T07:58:54.188Z,1485
2016-10-05T07:59:53.853Z,1560
2016-10-05T08:00:54.126Z,1565
2016-10-05T08:01:54.106Z,1570
2016-10-05T08:02:53.768Z,1595
2016-10-05T08:03:54.043Z,1565
2016-10-05T08:04:53.411Z,1570
2016-10-05T08:05:53.692Z,1580
2016-10-05T08:06:53.966Z,1590
2016-10-05T08:07:53.637Z,1580
2016-10-05T08:08:53.306Z,1585
2016-10-05T08:09:53.289Z,1600
2016-10-05T08:10:53.871Z,1585
2016-10-05T08:11:53.223Z,1575
2016-10-05T08:12:53.502Z,1615
2016-10-05T08:13:53.478Z,1580
2016-10-05T08:14:53.450Z,1590
2016-10-05T08:15:53.726Z,1615
2016-10-05T08:16:53.396Z,1610
2016-10-05T08:17:53.665Z,1570
2016-10-05T08:18:53.036Z,1620
2016-10-05T08:19:53.331Z,1650
2016-10-05T08:20:53.588Z,1690
2016-10-05T08:21:53.271Z,1545
2016-10-05T08:22:53.538Z,1675
2016-10-05T08:23:52.905Z,1660
2016-10-05T08:24:53.183Z,1685
2016-10-05T08:25:53.458Z,1580
2016-10-05T08:26:53.427Z,1740
2016-10-05T08:27:53.104Z,1745
2016-10-05T08:28:53.381Z,1745
2016-10-05T08:29:53.360Z,1750
2016-10-05T08:30:53.026Z,1740
2016-10-05T08:31:53.001Z,1745
2016-10-05T08:32:52.972Z,1760
2016-10-05T08:33:52.945Z,1775
2016-10-05T08:34:52.925Z,1765
2016-10-05T08:35:52.592Z,1775
2016-10-05T08:36:52.864Z,1790
2016-10-05T08:37:52.850Z,1805
2016-10-05T08:38:52.821Z,1850
2016-10-05T08:39:52.792Z,1870
2016-10-05T08:40:52.476Z,1835
2016-10-05T08:41:52.737Z,1850
2016-10-05T08:42:52.714Z,1845
2016-10-05T08:43:52.691Z,1820
2016-10-05T08:44:52.655Z,1845
2016-10-05T08:45:52.644Z,1855
2016-10-05T08:46:52.304Z,1870
2016-10-05T08:47:52.585Z,1870
2016-10-05T08:48:52.561Z,1870
2016-10-05T08:49:52.528Z,1900
2016-10-05T08:50:52.807Z,1930
2016-10-05T08:51:52.177Z,1875
2016-10-05T08:52:52.159Z,1850
2016-10-05T08:53:52.738Z,1870
2016-10-05T08:54:52.404Z,1895
2016-10-05T08:55:51.783Z,1945
2016-10-05T08:56:52.349Z,1935
2016-10-05T08:57:52.320Z,1930
2016-10-05T08:58:52.301Z,1910
2016-10-05T08:59:52.576Z,1820
2016-10-05T09:00:52.557Z,1885
2016-10-05T09:01:52.520Z,1905
2016-10-05T09:02:52.497Z,1840
2016-10-05T09:03:52.468Z,1785
2016-10-05T09:04:51.840Z,1820
2016-10-05T09:05:52.429Z,1800
2016-10-05T09:06:52.401Z,1750
2016-10-05T09:07:52.391Z,1800
2016-10-05T09:08:52.034Z,1820
2016-10-05T09:09:52.520Z,1815
2016-10-05T09:10:51.679Z,1845
2016-10-05T09:11:51.965Z,1910
2016-10-05T09:12:51.933Z,1825
2016-10-05T09:13:52.210Z,1830
2016-10-05T09:14:51.886Z,1885
2016-10-05T09:15:52.176Z,1865
2016-10-05T09:16:52.122Z,1860
2016-10-05T09:17:51.804Z,1880
2016-10-05T09:18:51.776Z,1910
2016-10-05T09:19:51.445Z,1940
2016-10-05T09:20:52.027Z,1885
2016-10-05T09:21:52.001Z,1785
2016-10-05T09:22:51.679Z,1790
2016-10-05T09:23:51.949Z,1940
2016-10-05T09:24:51.617Z,1580
2016-10-05T09:25:51.600Z,1135
2016-10-05T09:26:51.875Z,1055
2016-10-05T09:27:51.854Z,1030
2016-10-05T09:28:51.514Z,1040
2016-10-05T09:29:51.497Z,1040
2016-10-05T09:30:51.183Z,1040
2016-10-05T09:31:51.735Z,1025
2016-10-05T09:32:51.719Z,1015
2016-10-05T09:33:51.380Z,1010
2016-10-05T09:34:51.363Z,1005
2016-10-05T09:35:51.331Z,1000
2016-10-05T09:36:51.005Z,990
2016-10-05T09:37:51.284Z,985
2016-10-05T09:38:51.568Z,980
2016-10-05T09:39:51.233Z,965
2016-10-05T09:40:50.910Z,965
2016-10-05T09:41:51.483Z,960
2016-10-05T09:42:51.148Z,965
2016-10-05T09:43:50.831Z,955
2016-10-05T09:44:51.098Z,965
2016-10-05T09:45:51.074Z,955
2016-10-05T09:46:51.045Z,970
2016-10-05T09:47:50.717Z,960
2016-10-05T09:48:50.996Z,965
2016-10-05T09:49:50.666Z,970
2016-10-05T09:50:50.951Z,990
2016-10-05T09:51:51.233Z,1015
2016-10-05T09:52:50.902Z,1200
2016-10-05T09:53:50.870Z,1740
2016-10-05T09:54:50.839Z,1930
2016-10-05T09:55:51.129Z,1940
2016-10-05T09:56:51.097Z,1975
2016-10-05T09:57:50.794Z,2015
2016-10-05T09:58:50.762Z,1995
2016-10-05T09:59:51.020Z,2035
2016-10-05T10:00:50.688Z,1975
2016-10-05T10:01:50.971Z,2015
2016-10-05T10:02:50.650Z,1965
2016-10-05T10:03:50.924Z,1990
2016-10-05T10:04:50.894Z,2060
2016-10-05T10:06:50.240Z,2105
2016-10-05T10:07:50.542Z,2065
2016-10-05T10:08:50.798Z,2110
2016-10-05T10:09:50.767Z,2125
2016-10-05T10:10:50.748Z,2215
2016-10-05T10:11:50.115Z,2255
2016-10-05T10:12:50.695Z,2220
2016-10-05T10:13:49.460Z,2285
2016-10-05T10:14:50.374Z,2420
2016-10-05T10:15:50.319Z,2325
2016-10-05T10:16:49.688Z,2220
2016-10-05T10:17:50.569Z,2245
2016-10-05T10:18:50.559Z,2375
2016-10-05T10:19:50.216Z,2425
2016-10-05T10:20:50.192Z,2435
2016-10-05T10:21:50.466Z,2510
2016-10-05T10:22:50.147Z,2510
2016-10-05T10:23:50.416Z,2440
2016-10-05T10:24:49.781Z,2380
2016-10-05T10:25:50.385Z,2385
2016-10-05T10:26:50.043Z,2320
2016-10-05T10:27:50.026Z,2290
2016-10-05T10:28:49.695Z,2205
2016-10-05T10:29:50.254Z,2290
2016-10-05T10:30:49.935Z,2220
2016-10-05T10:31:49.911Z,2235
2016-10-05T10:32:50.184Z,2310
2016-10-05T10:33:49.856Z,1985
2016-10-05T10:34:49.833Z,1285
2016-10-05T10:35:49.806Z,870
2016-10-05T10:36:49.781Z,825
2016-10-05T10:37:50.055Z,805
2016-10-05T10:38:49.737Z,795
2016-10-05T10:39:50.022Z,795
2016-10-05T10:40:49.388Z,820
2016-10-05T10:41:49.955Z,860
2016-10-05T10:42:49.628Z,825
2016-10-05T10:43:49.596Z,765
2016-10-05T10:44:49.577Z,675
2016-10-05T10:45:49.862Z,820
2016-10-05T10:46:49.225Z,675
2016-10-05T10:47:49.493Z,815
2016-10-05T10:48:49.477Z,655
2016-10-05T10:49:49.749Z,785
2016-10-05T10:50:49.416Z,800
2016-10-05T10:51:49.388Z,905
2016-10-05T10:52:49.657Z,365
2016-10-05T10:53:49.341Z,1080
2016-10-05T10:54:49.304Z,1805
2016-10-05T10:55:49.272Z,2230
2016-10-05T10:56:49.251Z,2170
2016-10-05T10:57:49.233Z,2230
2016-10-05T10:58:49.494Z,2255
2016-10-05T10:59:49.487Z,2270
2016-10-05T11:00:49.438Z,2450
2016-10-05T11:01:49.130Z,2480
2016-10-05T11:02:48.482Z,2210
2016-10-05T11:03:48.758Z,2130
2016-10-05T11:04:49.348Z,2040
2016-10-05T11:05:49.313Z,1135
2016-10-05T11:06:49.276Z,620
2016-10-05T11:07:49.253Z,600
2016-10-05T11:08:49.239Z,555
2016-10-05T11:09:48.893Z,300
2016-10-05T11:10:48.569Z,515
2016-10-05T11:11:49.139Z,430
2016-10-05T11:12:48.817Z,490
2016-10-05T11:13:48.780Z,215
2016-10-05T11:14:49.054Z,445
2016-10-05T11:15:49.037Z,430
2016-10-05T11:16:48.693Z,255
2016-10-05T11:17:48.665Z,440
2016-10-05T11:18:48.629Z,570
2016-10-05T11:19:48.601Z,235
2016-10-05T11:20:48.285Z,1240
2016-10-05T11:21:48.548Z,1200
2016-10-05T11:22:48.522Z,775
2016-10-05T11:23:48.484Z,415
2016-10-05T11:24:48.765Z,350
2016-10-05T11:25:48.722Z,205
2016-10-05T11:26:48.386Z,315
2016-10-05T11:27:48.056Z,210
2016-10-05T11:28:48.622Z,290
2016-10-05T11:29:48.602Z,285
2016-10-05T11:30:48.564Z,280
2016-10-05T11:31:48.526Z,280
2016-10-05T11:32:47.593Z,280
2016-10-05T11:33:48.460Z,275
2016-10-05T11:34:47.528Z,270
2016-10-05T11:35:48.100Z,210
2016-10-05T11:36:48.064Z,275
2016-10-05T11:37:48.044Z,195
2016-10-05T11:38:48.299Z,260
2016-10-05T11:39:47.974Z,180
2016-10-05T11:40:48.238Z,230
2016-10-05T11:41:47.898Z,205
2016-10-05T11:42:47.876Z,185
2016-10-05T11:43:47.830Z,185
2016-10-05T11:44:47.802Z,195
2016-10-05T11:45:47.764Z,205
2016-10-05T11:46:47.441Z,190
2016-10-05T11:47:48.009Z,210
2016-10-05T11:48:47.363Z,210
2016-10-05T11:49:47.930Z,195
2016-10-05T11:50:47.908Z,210
2016-10-05T11:51:47.259Z,205
2016-10-05T11:52:47.526Z,185
2016-10-05T11:53:47.500Z,180
2016-10-05T11:54:47.154Z,180
2016-10-05T11:55:47.728Z,180
2016-10-05T11:56:47.389Z,190
2016-10-05T11:57:47.650Z,175
2016-10-05T11:58:47.320Z,185
2016-10-05T11:59:47.589Z,190
2016-10-05T12:00:47.246Z,185
2016-10-05T12:01:47.216Z,190
2016-10-05T12:02:47.482Z,170
2016-10-05T12:03:46.535Z,185
2016-10-05T12:04:47.408Z,185
2016-10-05T12:05:47.088Z,180
2016-10-05T12:06:47.050Z,180
2016-10-05T12:07:47.002Z,180
2016-10-05T12:08:47.273Z,185
2016-10-05T12:09:46.645Z,190
2016-10-05T12:10:46.888Z,175
2016-10-05T12:11:46.250Z,185
2016-10-05T12:12:46.831Z,190
2016-10-05T12:13:47.102Z,190
2016-10-05T12:14:46.754Z,195
2016-10-05T12:15:46.420Z,190
2016-10-05T12:16:47.011Z,175
2016-10-05T12:17:46.346Z,170
2016-10-05T12:18:46.616Z,170
2016-10-05T12:19:46.575Z,180
2016-10-05T12:20:46.544Z,175
2016-10-05T12:21:46.805Z,175
2016-10-05T12:22:46.777Z,160
2016-10-05T12:23:46.736Z,160
2016-10-05T12:24:46.111Z,170
2016-10-05T12:25:46.670Z,170
2016-10-05T12:26:46.629Z,170
2016-10-05T12:27:46.595Z,170
2016-10-05T12:28:46.572Z,175
2016-10-05T12:29:46.524Z,150
2016-10-05T12:30:45.887Z,145
2016-10-05T12:31:45.848Z,165
2016-10-05T12:32:46.171Z,155
2016-10-05T12:33:46.082Z,155
2016-10-05T12:34:46.046Z,150
2016-10-05T12:35:46.315Z,160
2016-10-05T12:36:45.667Z,160
2016-10-05T12:37:45.638Z,160
2016-10-05T12:38:45.903Z,160
2016-10-05T12:39:45.870Z,160
2016-10-05T12:40:45.533Z,160
2016-10-05T12:41:45.503Z,160
2016-10-05T12:42:46.065Z,160
2016-10-05T12:43:45.123Z,160
2016-10-05T12:44:45.991Z,160
2016-10-05T12:45:45.654Z,160
2016-10-05T12:46:45.625Z,160
2016-10-05T12:47:45.588Z,165
2016-10-05T12:48:45.548Z,170
2016-10-05T12:49:45.507Z,175
2016-10-05T12:50:45.472Z,175
2016-10-05T12:51:45.744Z,180
2016-10-05T12:52:45.400Z,185
2016-10-05T12:53:45.066Z,195
2016-10-05T12:54:45.040Z,170
2016-10-05T12:55:45.293Z,160
2016-10-05T12:56:45.262Z,155
2016-10-05T12:57:45.226Z,155
2016-10-05T12:58:45.488Z,160
2016-10-05T12:59:45.459Z,155
2016-10-05T13:00:45.414Z,155
2016-10-05T13:01:44.780Z,155
2016-10-05T13:02:45.346Z,155
2016-10-05T13:03:44.717Z,155
2016-10-05T13:04:44.967Z,155
2016-10-05T13:05:44.948Z,155
2016-10-05T13:06:45.200Z,155
2016-10-05T13:07:45.171Z,150
2016-10-05T13:08:44.837Z,150
2016-10-05T13:09:44.797Z,150
2016-10-05T13:10:44.762Z,150
2016-10-05T13:11:45.022Z,150
2016-10-05T13:12:44.988Z,145
2016-10-05T13:13:44.656Z,145
2016-10-05T13:14:44.913Z,140
2016-10-05T13:15:44.583Z,140
2016-10-05T13:16:44.254Z,140
2016-10-05T13:17:44.813Z,140
2016-10-05T13:18:44.471Z,140
2016-10-05T13:19:44.442Z,140
2016-10-05T13:20:44.704Z,140
2016-10-05T13:21:44.667Z,140
2016-10-05T13:22:44.034Z,140
2016-10-05T13:23:44.299Z,135
2016-10-05T13:24:44.561Z,135
2016-10-05T13:25:44.232Z,135
2016-10-05T13:26:44.189Z,135
2016-10-05T13:27:44.458Z,135
2016-10-05T13:28:44.120Z,135
2016-10-05T13:29:44.099Z,135
2016-10-05T13:30:44.352Z,135
2016-10-05T13:31:44.015Z,135
2016-10-05T13:32:43.976Z,135
2016-10-05T13:33:43.934Z,135
2016-10-05T13:34:43.606Z,135
2016-10-05T13:35:43.875Z,135
2016-10-05T13:36:44.141Z,135
2016-10-05T13:37:43.499Z,135
2016-10-05T13:38:43.761Z,135
2016-10-05T13:39:43.726Z,135
2016-10-05T13:40:44.030Z,130
2016-10-05T13:41:43.367Z,135
2016-10-05T13:42:43.920Z,130
2016-10-05T13:43:43.582Z,130
2016-10-05T13:44:43.550Z,130
2016-10-05T13:45:43.510Z,130
2016-10-05T13:46:43.472Z,130
2016-10-05T13:47:43.472Z,130
2016-10-05T13:48:43.707Z,130
2016-10-05T13:49:42.770Z,130
2016-10-05T13:50:43.631Z,130
2016-10-05T13:51:43.600Z,130
2016-10-05T13:52:42.957Z,125
2016-10-05T13:53:43.529Z,125
2016-10-05T13:54:43.191Z,125
2016-10-05T13:55:43.161Z,125
2016-10-05T13:56:43.130Z,125
2016-10-05T13:57:43.392Z,125
2016-10-05T13:58:43.349Z,125
2016-10-05T13:59:43.016Z,125
2016-10-05T14:00:43.276Z,125
2016-10-05T14:01:42.962Z,125
2016-10-05T14:02:42.622Z,130
2016-10-05T14:03:43.174Z,125
2016-10-05T14:04:43.141Z,125
2016-10-05T14:05:42.799Z,130